sensor_id;sensor_type;location;lat;lon;timestamp;pressure;altitude;pressure_sealevel;temperature;humidity
68476;BME280;55464;48.266;14.188;2023-06-22T00:01:18;98043.19;;;22.70;58.43
68476;BME280;55464;48.266;14.188;2023-06-22T00:03:43;98033.63;;;22.68;58.18
68476;BME280;55464;48.266;14.188;2023-06-22T00:06:09;98033.16;;;22.73;57.91
68476;BME280;55464;48.266;14.188;2023-06-22T00:08:34;98023.13;;;22.72;57.54
68476;BME280;55464;48.266;14.188;2023-06-22T00:10:59;98025.09;;;22.75;58.45
68476;BME280;55464;48.266;14.188;2023-06-22T00:13:25;98021.59;;;22.67;59.26
68476;BME280;55464;48.266;14.188;2023-06-22T00:15:50;98014.03;;;22.60;59.70
68476;BME280;55464;48.266;14.188;2023-06-22T00:18:16;98006.91;;;22.52;60.04
68476;BME280;55464;48.266;14.188;2023-06-22T00:20:41;98010.59;;;22.45;59.59
68476;BME280;55464;48.266;14.188;2023-06-22T00:23:07;98019.44;;;22.44;60.15
68476;BME280;55464;48.266;14.188;2023-06-22T00:25:37;98015.50;;;22.38;60.29
68476;BME280;55464;48.266;14.188;2023-06-22T00:28:04;98005.06;;;22.38;59.92
68476;BME280;55464;48.266;14.188;2023-06-22T00:30:31;98012.69;;;22.38;60.07
68476;BME280;55464;48.266;14.188;2023-06-22T00:32:56;98004.31;;;22.34;60.29
68476;BME280;55464;48.266;14.188;2023-06-22T00:35:22;98010.38;;;22.25;60.42
68476;BME280;55464;48.266;14.188;2023-06-22T00:37:47;98014.81;;;22.26;60.67
68476;BME280;55464;48.266;14.188;2023-06-22T00:40:13;97999.19;;;22.22;60.73
68476;BME280;55464;48.266;14.188;2023-06-22T00:42:40;98002.84;;;22.19;61.29
68476;BME280;55464;48.266;14.188;2023-06-22T00:45:06;98005.28;;;22.17;61.58
68476;BME280;55464;48.266;14.188;2023-06-22T00:47:32;97998.53;;;22.07;61.32
68476;BME280;55464;48.266;14.188;2023-06-22T00:49:59;97992.13;;;22.06;61.56
68476;BME280;55464;48.266;14.188;2023-06-22T00:52:26;97982.59;;;22.00;61.75
68476;BME280;55464;48.266;14.188;2023-06-22T00:54:54;97999.84;;;21.99;62.06
68476;BME280;55464;48.266;14.188;2023-06-22T00:57:22;98003.50;;;21.92;62.17
68476;BME280;55464;48.266;14.188;2023-06-22T00:59:48;97988.34;;;21.82;62.01
68476;BME280;55464;48.266;14.188;2023-06-22T01:02:14;97987.13;;;21.87;61.88
68476;BME280;55464;48.266;14.188;2023-06-22T01:04:40;97979.50;;;21.87;61.89
68476;BME280;55464;48.266;14.188;2023-06-22T01:09:43;97960.34;;;21.79;62.06
68476;BME280;55464;48.266;14.188;2023-06-22T01:12:12;97955.97;;;21.78;62.04
68476;BME280;55464;48.266;14.188;2023-06-22T01:14:55;97948.75;;;21.77;62.04
68476;BME280;55464;48.266;14.188;2023-06-22T01:17:23;97946.34;;;21.75;62.17
68476;BME280;55464;48.266;14.188;2023-06-22T01:19:51;97948.78;;;21.73;62.11
68476;BME280;55464;48.266;14.188;2023-06-22T01:22:23;97943.59;;;21.71;62.28
68476;BME280;55464;48.266;14.188;2023-06-22T01:30:20;97956.88;;;21.64;62.48
68476;BME280;55464;48.266;14.188;2023-06-22T01:32:47;97963.31;;;21.61;62.84
68476;BME280;55464;48.266;14.188;2023-06-22T01:35:14;97954.53;;;21.59;62.62
68476;BME280;55464;48.266;14.188;2023-06-22T01:37:40;97956.94;;;21.60;62.86
68476;BME280;55464;48.266;14.188;2023-06-22T01:40:07;97925.31;;;21.52;62.84
68476;BME280;55464;48.266;14.188;2023-06-22T01:42:34;97921.28;;;21.57;62.70
68476;BME280;55464;48.266;14.188;2023-06-22T01:45:01;97910.50;;;21.52;62.41
68476;BME280;55464;48.266;14.188;2023-06-22T01:47:27;97919.72;;;21.52;62.54
68476;BME280;55464;48.266;14.188;2023-06-22T01:49:53;97916.09;;;21.56;62.28
68476;BME280;55464;48.266;14.188;2023-06-22T01:52:20;97913.69;;;21.54;62.29
68476;BME280;55464;48.266;14.188;2023-06-22T01:54:46;97926.53;;;21.55;62.38
68476;BME280;55464;48.266;14.188;2023-06-22T01:57:12;97922.53;;;21.52;62.84
68476;BME280;55464;48.266;14.188;2023-06-22T02:02:14;97927.75;;;21.50;62.77
68476;BME280;55464;48.266;14.188;2023-06-22T02:07:17;97930.97;;;21.49;63.00
68476;BME280;55464;48.266;14.188;2023-06-22T02:09:45;97922.59;;;21.42;63.23
68476;BME280;55464;48.266;14.188;2023-06-22T02:12:13;97920.59;;;21.46;62.98
68476;BME280;55464;48.266;14.188;2023-06-22T02:14:42;97911.41;;;21.38;63.01
68476;BME280;55464;48.266;14.188;2023-06-22T02:17:09;97895.81;;;21.33;63.12
68476;BME280;55464;48.266;14.188;2023-06-22T02:19:38;97900.97;;;21.39;62.92
68476;BME280;55464;48.266;14.188;2023-06-22T02:22:04;97896.19;;;21.39;63.17
68476;BME280;55464;48.266;14.188;2023-06-22T02:24:30;97889.34;;;21.40;62.91
68476;BME280;55464;48.266;14.188;2023-06-22T02:27:01;97891.38;;;21.40;62.83
68476;BME280;55464;48.266;14.188;2023-06-22T02:29:27;97888.97;;;21.38;62.76
68476;BME280;55464;48.266;14.188;2023-06-22T02:31:53;97882.19;;;21.39;62.38
68476;BME280;55464;48.266;14.188;2023-06-22T02:34:19;97889.44;;;21.33;62.79
68476;BME280;55464;48.266;14.188;2023-06-22T02:36:46;97880.22;;;21.32;62.64
68476;BME280;55464;48.266;14.188;2023-06-22T02:39:24;97882.22;;;21.36;62.03
68476;BME280;55464;48.266;14.188;2023-06-22T02:41:51;97892.56;;;21.39;62.09
68476;BME280;55464;48.266;14.188;2023-06-22T02:44:17;97900.19;;;21.38;61.74
68476;BME280;55464;48.266;14.188;2023-06-22T02:46:43;97904.66;;;21.32;61.98
68476;BME280;55464;48.266;14.188;2023-06-22T02:49:10;97907.06;;;21.30;61.66
68476;BME280;55464;48.266;14.188;2023-06-22T02:51:37;97912.69;;;21.26;61.86
68476;BME280;55464;48.266;14.188;2023-06-22T02:54:05;97909.50;;;21.28;61.68
68476;BME280;55464;48.266;14.188;2023-06-22T02:56:30;97897.16;;;21.22;61.91
68476;BME280;55464;48.266;14.188;2023-06-22T02:58:56;97904.72;;;21.25;61.83
68476;BME280;55464;48.266;14.188;2023-06-22T03:01:30;97911.53;;;21.24;62.31
68476;BME280;55464;48.266;14.188;2023-06-22T03:04:05;97917.19;;;21.17;62.79
68476;BME280;55464;48.266;14.188;2023-06-22T03:06:30;97908.47;;;21.07;62.48
68476;BME280;55464;48.266;14.188;2023-06-22T03:09:01;97905.69;;;21.04;62.66
68476;BME280;55464;48.266;14.188;2023-06-22T03:11:27;97911.66;;;21.09;62.63
68476;BME280;55464;48.266;14.188;2023-06-22T03:13:52;97904.03;;;21.10;62.67
68476;BME280;55464;48.266;14.188;2023-06-22T03:16:18;97902.44;;;21.09;62.92
68476;BME280;55464;48.266;14.188;2023-06-22T03:18:44;97898.47;;;21.06;63.02
68476;BME280;55464;48.266;14.188;2023-06-22T03:21:10;97893.25;;;21.05;62.67
68476;BME280;55464;48.266;14.188;2023-06-22T03:23:35;97884.09;;;21.01;62.90
68476;BME280;55464;48.266;14.188;2023-06-22T03:26:01;97895.72;;;20.99;63.15
68476;BME280;55464;48.266;14.188;2023-06-22T03:28:27;97894.91;;;21.02;63.15
68476;BME280;55464;48.266;14.188;2023-06-22T03:30:53;97896.84;;;21.05;62.44
68476;BME280;55464;48.266;14.188;2023-06-22T03:33:18;97905.25;;;21.05;62.86
68476;BME280;55464;48.266;14.188;2023-06-22T03:35:43;97890.84;;;21.07;62.72
68476;BME280;55464;48.266;14.188;2023-06-22T03:38:09;97897.69;;;21.06;62.50
68476;BME280;55464;48.266;14.188;2023-06-22T03:40:34;97898.50;;;21.03;62.84
68476;BME280;55464;48.266;14.188;2023-06-22T03:43:00;97894.47;;;21.07;63.04
68476;BME280;55464;48.266;14.188;2023-06-22T03:45:25;97893.66;;;21.07;62.65
68476;BME280;55464;48.266;14.188;2023-06-22T03:47:50;97900.06;;;21.07;62.75
68476;BME280;55464;48.266;14.188;2023-06-22T03:50:16;97889.28;;;21.02;62.84
68476;BME280;55464;48.266;14.188;2023-06-22T03:52:41;97898.84;;;21.08;62.88
68476;BME280;55464;48.266;14.188;2023-06-22T03:55:07;97907.28;;;21.05;62.86
68476;BME280;55464;48.266;14.188;2023-06-22T03:57:33;97908.88;;;21.06;62.84
68476;BME280;55464;48.266;14.188;2023-06-22T03:59:59;97903.69;;;21.04;63.13
68476;BME280;55464;48.266;14.188;2023-06-22T04:02:25;97906.47;;;21.08;63.05
68476;BME280;55464;48.266;14.188;2023-06-22T04:04:50;97907.63;;;21.10;63.33
68476;BME280;55464;48.266;14.188;2023-06-22T04:07:16;97903.66;;;21.08;63.05
68476;BME280;55464;48.266;14.188;2023-06-22T04:09:43;97907.59;;;21.14;63.67
68476;BME280;55464;48.266;14.188;2023-06-22T04:12:09;97906.06;;;21.09;64.06
68476;BME280;55464;48.266;14.188;2023-06-22T04:14:34;97907.22;;;21.12;63.69
68476;BME280;55464;48.266;14.188;2023-06-22T04:17:00;97917.22;;;21.13;64.27
68476;BME280;55464;48.266;14.188;2023-06-22T04:19:25;97917.22;;;21.13;63.96
68476;BME280;55464;48.266;14.188;2023-06-22T04:21:50;97912.44;;;21.10;64.13
68476;BME280;55464;48.266;14.188;2023-06-22T04:24:16;97920.41;;;21.15;63.68
68476;BME280;55464;48.266;14.188;2023-06-22T04:26:41;97918.34;;;21.23;63.39
68476;BME280;55464;48.266;14.188;2023-06-22T04:29:12;97913.13;;;21.25;62.77
68476;BME280;55464;48.266;14.188;2023-06-22T04:31:37;97910.31;;;21.28;63.04
68476;BME280;55464;48.266;14.188;2023-06-22T04:34:04;97905.47;;;21.32;62.86
68476;BME280;55464;48.266;14.188;2023-06-22T04:36:38;97894.22;;;21.36;62.87
68476;BME280;55464;48.266;14.188;2023-06-22T04:39:08;97899.78;;;21.40;62.88
68476;BME280;55464;48.266;14.188;2023-06-22T04:41:38;97886.13;;;21.42;62.94
68476;BME280;55464;48.266;14.188;2023-06-22T04:46:36;97870.56;;;21.41;62.42
68476;BME280;55464;48.266;14.188;2023-06-22T04:49:09;97868.13;;;21.43;63.21
68476;BME280;55464;48.266;14.188;2023-06-22T04:51:40;97874.09;;;21.48;62.95
68476;BME280;55464;48.266;14.188;2023-06-22T04:54:06;97876.50;;;21.50;63.36
68476;BME280;55464;48.266;14.188;2023-06-22T04:56:32;97863.69;;;21.45;63.66
68476;BME280;55464;48.266;14.188;2023-06-22T04:58:58;97875.66;;;21.53;62.84
68476;BME280;55464;48.266;14.188;2023-06-22T05:01:23;97855.22;;;21.52;63.05
68476;BME280;55464;48.266;14.188;2023-06-22T05:03:50;97865.56;;;21.59;63.25
68476;BME280;55464;48.266;14.188;2023-06-22T05:06:23;97858.75;;;21.60;63.14
68476;BME280;55464;48.266;14.188;2023-06-22T05:08:55;97858.72;;;21.64;63.22
68476;BME280;55464;48.266;14.188;2023-06-22T05:11:28;97855.50;;;21.65;63.22
68476;BME280;55464;48.266;14.188;2023-06-22T05:13:53;97853.44;;;21.69;63.29
68476;BME280;55464;48.266;14.188;2023-06-22T05:16:20;97859.44;;;21.71;63.30
68476;BME280;55464;48.266;14.188;2023-06-22T05:18:54;97860.63;;;21.74;63.26
68476;BME280;55464;48.266;14.188;2023-06-22T05:21:25;97852.53;;;21.80;62.94
68476;BME280;55464;48.266;14.188;2023-06-22T05:23:52;97868.91;;;21.85;63.12
68476;BME280;55464;48.266;14.188;2023-06-22T05:26:21;97854.06;;;21.84;63.26
68476;BME280;55464;48.266;14.188;2023-06-22T05:28:47;97847.63;;;21.87;63.66
68476;BME280;55464;48.266;14.188;2023-06-22T05:31:16;97864.34;;;21.98;63.57
68476;BME280;55464;48.266;14.188;2023-06-22T05:33:43;97855.13;;;21.98;63.19
68476;BME280;55464;48.266;14.188;2023-06-22T05:36:09;97857.06;;;22.04;62.41
68476;BME280;55464;48.266;14.188;2023-06-22T05:38:35;97851.81;;;22.06;62.60
68476;BME280;55464;48.266;14.188;2023-06-22T05:41:01;97855.75;;;22.13;62.04
68476;BME280;55464;48.266;14.188;2023-06-22T05:43:26;97854.09;;;22.15;62.04
68476;BME280;55464;48.266;14.188;2023-06-22T05:45:52;97854.44;;;22.21;62.29
68476;BME280;55464;48.266;14.188;2023-06-22T05:48:17;97847.56;;;22.25;62.62
68476;BME280;55464;48.266;14.188;2023-06-22T05:50:43;97846.75;;;22.28;62.03
68476;BME280;55464;48.266;14.188;2023-06-22T05:53:08;97838.34;;;22.25;62.55
68476;BME280;55464;48.266;14.188;2023-06-22T05:55:33;97846.66;;;22.36;62.66
68476;BME280;55464;48.266;14.188;2023-06-22T05:57:59;97843.38;;;22.41;62.81
68476;BME280;55464;48.266;14.188;2023-06-22T06:00:24;97835.38;;;22.39;62.32
68476;BME280;55464;48.266;14.188;2023-06-22T06:02:50;97840.84;;;22.50;61.99
68476;BME280;55464;48.266;14.188;2023-06-22T06:05:15;97848.78;;;22.55;61.57
68476;BME280;55464;48.266;14.188;2023-06-22T06:07:45;97839.56;;;22.55;60.75
68476;BME280;55464;48.266;14.188;2023-06-22T06:10:11;97848.31;;;22.60;61.52
68476;BME280;55464;48.266;14.188;2023-06-22T06:12:36;97851.06;;;22.64;61.21
68476;BME280;55464;48.266;14.188;2023-06-22T06:15:03;97852.16;;;22.70;60.49
68476;BME280;55464;48.266;14.188;2023-06-22T06:17:29;97853.34;;;22.73;60.85
68476;BME280;55464;48.266;14.188;2023-06-22T06:19:54;97858.53;;;22.74;59.72
68476;BME280;55464;48.266;14.188;2023-06-22T06:22:19;97840.50;;;22.72;59.81
68476;BME280;55464;48.266;14.188;2023-06-22T06:24:47;97849.22;;;22.81;60.11
68476;BME280;55464;48.266;14.188;2023-06-22T06:27:13;97844.75;;;22.83;59.71
68476;BME280;55464;48.266;14.188;2023-06-22T06:29:38;97836.31;;;22.83;59.64
68476;BME280;55464;48.266;14.188;2023-06-22T06:32:04;97837.91;;;22.84;59.68
68476;BME280;55464;48.266;14.188;2023-06-22T06:34:29;97850.19;;;22.94;59.95
68476;BME280;55464;48.266;14.188;2023-06-22T06:36:55;97840.97;;;22.94;59.46
68476;BME280;55464;48.266;14.188;2023-06-22T06:39:20;97840.50;;;22.99;59.09
68476;BME280;55464;48.266;14.188;2023-06-22T06:41:46;97843.66;;;23.01;58.54
68476;BME280;55464;48.266;14.188;2023-06-22T06:44:11;97842.00;;;23.07;58.60
68476;BME280;55464;48.266;14.188;2023-06-22T06:46:37;97823.13;;;23.04;58.18
68476;BME280;55464;48.266;14.188;2023-06-22T06:49:03;97839.50;;;23.13;58.11
68476;BME280;55464;48.266;14.188;2023-06-22T06:51:28;97825.13;;;23.07;57.71
68476;BME280;55464;48.266;14.188;2023-06-22T06:53:54;97824.56;;;23.16;58.42
68476;BME280;55464;48.266;14.188;2023-06-22T06:56:20;97834.22;;;23.15;58.42
68476;BME280;55464;48.266;14.188;2023-06-22T06:58:45;97824.56;;;23.16;58.50
68476;BME280;55464;48.266;14.188;2023-06-22T07:01:14;97824.94;;;23.18;58.41
68476;BME280;55464;48.266;14.188;2023-06-22T07:03:39;97834.47;;;23.24;58.67
68476;BME280;55464;48.266;14.188;2023-06-22T07:06:05;97823.97;;;23.28;58.84
68476;BME280;55464;48.266;14.188;2023-06-22T07:08:30;97834.34;;;23.31;58.43
68476;BME280;55464;48.266;14.188;2023-06-22T07:10:56;97815.47;;;23.32;57.90
68476;BME280;55464;48.266;14.188;2023-06-22T07:13:21;97802.19;;;23.32;58.40
68476;BME280;55464;48.266;14.188;2023-06-22T07:15:47;97804.00;;;23.43;58.96
68476;BME280;55464;48.266;14.188;2023-06-22T07:18:12;97803.94;;;23.46;59.14
68476;BME280;55464;48.266;14.188;2023-06-22T07:20:38;97795.16;;;23.44;58.24
68476;BME280;55464;48.266;14.188;2023-06-22T07:23:04;97805.84;;;23.53;57.84
68476;BME280;55464;48.266;14.188;2023-06-22T07:25:30;97806.97;;;23.55;58.79
68476;BME280;55464;48.266;14.188;2023-06-22T07:27:58;97801.28;;;23.59;58.74
68476;BME280;55464;48.266;14.188;2023-06-22T07:30:25;97793.63;;;23.59;57.88
68476;BME280;55464;48.266;14.188;2023-06-22T07:32:50;97793.63;;;23.59;58.20
68476;BME280;55464;48.266;14.188;2023-06-22T07:35:16;97795.88;;;23.68;58.53
68476;BME280;55464;48.266;14.188;2023-06-22T07:37:42;97804.69;;;23.70;57.94
68476;BME280;55464;48.266;14.188;2023-06-22T07:40:08;97799.84;;;23.71;58.02
68476;BME280;55464;48.266;14.188;2023-06-22T07:42:33;97789.31;;;23.75;57.33
68476;BME280;55464;48.266;14.188;2023-06-22T07:44:59;97787.28;;;23.75;58.25
68476;BME280;55464;48.266;14.188;2023-06-22T07:47:24;97795.97;;;23.85;57.71
68476;BME280;55464;48.266;14.188;2023-06-22T07:49:53;97791.41;;;23.91;57.12
68476;BME280;55464;48.266;14.188;2023-06-22T07:52:20;97789.78;;;23.93;56.58
68476;BME280;55464;48.266;14.188;2023-06-22T07:54:46;97803.78;;;23.97;56.71
68476;BME280;55464;48.266;14.188;2023-06-22T07:57:11;97794.47;;;24.00;57.23
68476;BME280;55464;48.266;14.188;2023-06-22T07:59:37;97800.78;;;24.04;57.76
68476;BME280;55464;48.266;14.188;2023-06-22T08:02:02;97784.25;;;24.06;56.36
68476;BME280;55464;48.266;14.188;2023-06-22T08:04:29;97795.38;;;24.13;56.78
68476;BME280;55464;48.266;14.188;2023-06-22T08:06:56;97790.97;;;24.12;57.35
68476;BME280;55464;48.266;14.188;2023-06-22T08:09:21;97792.81;;;24.19;56.31
68476;BME280;55464;48.266;14.188;2023-06-22T08:11:47;97795.94;;;24.25;56.47
68476;BME280;55464;48.266;14.188;2023-06-22T08:14:13;97798.25;;;24.30;56.91
68476;BME280;55464;48.266;14.188;2023-06-22T08:16:38;97798.94;;;24.34;57.03
68476;BME280;55464;48.266;14.188;2023-06-22T08:19:03;97795.16;;;24.41;57.78
68476;BME280;55464;48.266;14.188;2023-06-22T08:21:29;97796.66;;;24.45;57.19
68476;BME280;55464;48.266;14.188;2023-06-22T08:23:54;97783.09;;;24.40;56.42
68476;BME280;55464;48.266;14.188;2023-06-22T08:26:19;97781.34;;;24.46;56.71
68476;BME280;55464;48.266;14.188;2023-06-22T08:28:45;97786.03;;;24.53;56.39
68476;BME280;55464;48.266;14.188;2023-06-22T08:31:10;97780.41;;;24.53;56.70
68476;BME280;55464;48.266;14.188;2023-06-22T08:33:37;97777.34;;;24.64;56.40
68476;BME280;55464;48.266;14.188;2023-06-22T08:36:03;97781.69;;;24.68;57.66
68476;BME280;55464;48.266;14.188;2023-06-22T08:38:31;97769.16;;;24.69;56.74
68476;BME280;55464;48.266;14.188;2023-06-22T08:40:57;97782.19;;;24.80;57.28
68476;BME280;55464;48.266;14.188;2023-06-22T08:43:22;97772.22;;;24.75;56.51
68476;BME280;55464;48.266;14.188;2023-06-22T08:45:48;97779.97;;;24.87;56.22
68476;BME280;55464;48.266;14.188;2023-06-22T08:48:13;97780.16;;;24.97;56.93
68476;BME280;55464;48.266;14.188;2023-06-22T08:50:39;97781.38;;;24.96;55.47
68476;BME280;55464;48.266;14.188;2023-06-22T08:53:05;97783.69;;;25.01;56.15
68476;BME280;55464;48.266;14.188;2023-06-22T08:55:31;97784.81;;;25.03;56.97
68476;BME280;55464;48.266;14.188;2023-06-22T08:57:57;97776.97;;;25.11;55.99
68476;BME280;55464;48.266;14.188;2023-06-22T09:00:22;97789.81;;;25.12;57.65
68476;BME280;55464;48.266;14.188;2023-06-22T09:02:48;97796.44;;;25.22;57.76
68476;BME280;55464;48.266;14.188;2023-06-22T09:05:13;97787.81;;;25.29;57.15
68476;BME280;55464;48.266;14.188;2023-06-22T09:07:39;97792.56;;;25.32;58.24
68476;BME280;55464;48.266;14.188;2023-06-22T09:10:06;97779.59;;;25.35;58.12
68476;BME280;55464;48.266;14.188;2023-06-22T09:12:32;97764.81;;;25.31;57.91
68476;BME280;55464;48.266;14.188;2023-06-22T09:14:58;97770.94;;;25.42;58.26
68476;BME280;55464;48.266;14.188;2023-06-22T09:17:25;97765.19;;;25.45;59.06
68476;BME280;55464;48.266;14.188;2023-06-22T09:19:52;97772.66;;;25.52;59.07
68476;BME280;55464;48.266;14.188;2023-06-22T09:22:18;97766.94;;;25.56;58.94
68476;BME280;55464;48.266;14.188;2023-06-22T09:24:43;97759.06;;;25.63;58.00
68476;BME280;55464;48.266;14.188;2023-06-22T09:27:08;97753.09;;;25.61;57.93
68476;BME280;55464;48.266;14.188;2023-06-22T09:29:34;97761.47;;;25.78;58.55
68476;BME280;55464;48.266;14.188;2023-06-22T09:32:00;97753.00;;;25.78;56.82
68476;BME280;55464;48.266;14.188;2023-06-22T09:34:25;97766.00;;;25.88;57.77
68476;BME280;55464;48.266;14.188;2023-06-22T09:36:51;97755.75;;;25.94;57.29
68476;BME280;55464;48.266;14.188;2023-06-22T09:39:18;97752.06;;;25.97;58.58
68476;BME280;55464;48.266;14.188;2023-06-22T09:41:43;97745.50;;;26.00;56.88
68476;BME280;55464;48.266;14.188;2023-06-22T09:44:09;97757.81;;;26.07;56.39
68476;BME280;55464;48.266;14.188;2023-06-22T09:46:34;97754.78;;;26.14;56.73
68476;BME280;55464;48.266;14.188;2023-06-22T09:48:59;97753.44;;;26.18;55.92
68476;BME280;55464;48.266;14.188;2023-06-22T09:51:25;97746.88;;;26.21;56.02
68476;BME280;55464;48.266;14.188;2023-06-22T09:53:51;97742.25;;;26.28;54.01
68476;BME280;55464;48.266;14.188;2023-06-22T09:56:17;97748.34;;;26.26;56.22
68476;BME280;55464;48.266;14.188;2023-06-22T09:58:43;97749.16;;;26.39;55.15
68476;BME280;55464;48.266;14.188;2023-06-22T10:01:10;97746.75;;;26.38;55.20
68476;BME280;55464;48.266;14.188;2023-06-22T10:03:36;97734.00;;;26.46;55.31
68476;BME280;55464;48.266;14.188;2023-06-22T10:06:01;97737.16;;;26.48;55.85
68476;BME280;55464;48.266;14.188;2023-06-22T10:08:27;97734.00;;;26.46;56.54
68476;BME280;55464;48.266;14.188;2023-06-22T10:10:52;97727.78;;;26.51;56.59
68476;BME280;55464;48.266;14.188;2023-06-22T10:13:18;97750.16;;;26.58;56.07
68476;BME280;55464;48.266;14.188;2023-06-22T10:15:44;97733.00;;;26.66;56.44
68476;BME280;55464;48.266;14.188;2023-06-22T10:18:17;97730.16;;;26.66;56.35
68476;BME280;55464;48.266;14.188;2023-06-22T10:20:45;97732.28;;;26.74;57.15
68476;BME280;55464;48.266;14.188;2023-06-22T10:23:10;97731.38;;;26.77;57.26
68476;BME280;55464;48.266;14.188;2023-06-22T10:25:35;97733.97;;;26.85;56.28
68476;BME280;55464;48.266;14.188;2023-06-22T10:28:01;97724.59;;;26.88;56.22
68476;BME280;55464;48.266;14.188;2023-06-22T10:30:26;97715.97;;;26.91;55.43
68476;BME280;55464;48.266;14.188;2023-06-22T10:32:54;97723.19;;;26.92;56.18
68476;BME280;55464;48.266;14.188;2023-06-22T10:35:19;97712.78;;;27.02;56.23
68476;BME280;55464;48.266;14.188;2023-06-22T10:37:45;97715.16;;;27.04;54.63
68476;BME280;55464;48.266;14.188;2023-06-22T10:40:12;97713.97;;;27.14;54.42
68476;BME280;55464;48.266;14.188;2023-06-22T10:42:38;97724.69;;;27.19;53.14
68476;BME280;55464;48.266;14.188;2023-06-22T10:45:04;97717.91;;;27.16;54.54
68476;BME280;55464;48.266;14.188;2023-06-22T10:47:29;97711.34;;;27.20;54.08
68476;BME280;55464;48.266;14.188;2023-06-22T10:49:55;97714.38;;;27.25;54.24
68476;BME280;55464;48.266;14.188;2023-06-22T10:52:20;97712.59;;;27.31;54.84
68476;BME280;55464;48.266;14.188;2023-06-22T10:54:46;97703.97;;;27.35;55.48
68476;BME280;55464;48.266;14.188;2023-06-22T10:57:11;97709.41;;;27.51;54.68
68476;BME280;55464;48.266;14.188;2023-06-22T10:59:36;97715.41;;;27.53;53.92
68476;BME280;55464;48.266;14.188;2023-06-22T11:02:02;97704.22;;;27.50;54.22
68476;BME280;55464;48.266;14.188;2023-06-22T11:04:27;97699.34;;;27.50;54.77
68476;BME280;55464;48.266;14.188;2023-06-22T11:06:53;97687.75;;;27.58;54.17
68476;BME280;55464;48.266;14.188;2023-06-22T11:09:18;97691.13;;;27.65;53.37
68476;BME280;55464;48.266;14.188;2023-06-22T11:11:50;97690.34;;;27.65;54.04
68476;BME280;55464;48.266;14.188;2023-06-22T11:14:18;97693.81;;;27.69;54.84
68476;BME280;55464;48.266;14.188;2023-06-22T11:16:44;97688.16;;;27.69;54.54
68476;BME280;55464;48.266;14.188;2023-06-22T11:19:09;97680.63;;;27.75;54.80
68476;BME280;55464;48.266;14.188;2023-06-22T11:21:35;97686.81;;;27.83;54.41
68476;BME280;55464;48.266;14.188;2023-06-22T11:24:00;97682.91;;;27.89;54.47
68476;BME280;55464;48.266;14.188;2023-06-22T11:26:26;97686.28;;;27.97;54.70
68476;BME280;55464;48.266;14.188;2023-06-22T11:28:55;97685.34;;;28.00;52.60
68476;BME280;55464;48.266;14.188;2023-06-22T11:31:20;97684.16;;;28.10;52.20
68476;BME280;55464;48.266;14.188;2023-06-22T11:33:46;97685.53;;;28.06;52.64
68476;BME280;55464;48.266;14.188;2023-06-22T11:36:12;97676.88;;;28.09;52.12
68476;BME280;55464;48.266;14.188;2023-06-22T11:38:37;97680.84;;;28.12;52.32
68476;BME280;55464;48.266;14.188;2023-06-22T11:41:06;97674.97;;;28.06;52.21
68476;BME280;55464;48.266;14.188;2023-06-22T11:43:31;97660.97;;;28.03;51.78
68476;BME280;55464;48.266;14.188;2023-06-22T11:45:57;97661.28;;;28.05;52.27
68476;BME280;55464;48.266;14.188;2023-06-22T11:48:24;97656.75;;;28.07;51.76
68476;BME280;55464;48.266;14.188;2023-06-22T11:50:49;97650.94;;;28.11;53.03
68476;BME280;55464;48.266;14.188;2023-06-22T11:53:14;97650.94;;;28.20;52.92
68476;BME280;55464;48.266;14.188;2023-06-22T11:55:42;97653.19;;;28.25;53.07
68476;BME280;55464;48.266;14.188;2023-06-22T11:58:07;97646.44;;;28.32;52.99
68476;BME280;55464;48.266;14.188;2023-06-22T12:00:33;97652.44;;;28.43;51.60
68476;BME280;55464;48.266;14.188;2023-06-22T12:02:59;97645.66;;;28.41;52.14
68476;BME280;55464;48.266;14.188;2023-06-22T12:05:24;97640.31;;;28.43;52.08
68476;BME280;55464;48.266;14.188;2023-06-22T12:07:50;97639.06;;;28.53;52.26
68476;BME280;55464;48.266;14.188;2023-06-22T12:10:15;97634.19;;;28.54;52.15
68476;BME280;55464;48.266;14.188;2023-06-22T12:12:41;97628.97;;;28.52;53.02
68476;BME280;55464;48.266;14.188;2023-06-22T12:15:11;97622.53;;;28.52;53.96
68476;BME280;55464;48.266;14.188;2023-06-22T12:17:36;97626.53;;;28.63;52.98
68476;BME280;55464;48.266;14.188;2023-06-22T12:20:02;97630.13;;;28.73;52.18
68476;BME280;55464;48.266;14.188;2023-06-22T12:22:31;97627.47;;;28.79;52.85
68476;BME280;55464;48.266;14.188;2023-06-22T12:24:56;97616.44;;;28.90;52.73
68476;BME280;55464;48.266;14.188;2023-06-22T12:27:22;97617.88;;;28.95;50.86
68476;BME280;55464;48.266;14.188;2023-06-22T12:29:47;97612.50;;;28.97;52.38
68476;BME280;55464;48.266;14.188;2023-06-22T12:32:13;97601.16;;;29.06;52.73
68476;BME280;55464;48.266;14.188;2023-06-22T12:34:41;97608.84;;;29.15;52.79
68476;BME280;55464;48.266;14.188;2023-06-22T12:37:06;97591.22;;;29.20;51.10
68476;BME280;55464;48.266;14.188;2023-06-22T12:39:32;97596.41;;;29.31;52.15
68476;BME280;55464;48.266;14.188;2023-06-22T12:41:58;97594.22;;;29.35;51.51
68476;BME280;55464;48.266;14.188;2023-06-22T12:44:23;97592.44;;;29.37;49.86
68476;BME280;55464;48.266;14.188;2023-06-22T12:46:49;97583.63;;;29.35;50.39
68476;BME280;55464;48.266;14.188;2023-06-22T12:49:14;97584.72;;;29.38;49.53
68476;BME280;55464;48.266;14.188;2023-06-22T12:51:41;97591.34;;;29.44;50.74
68476;BME280;55464;48.266;14.188;2023-06-22T12:54:07;97580.41;;;29.52;51.78
68476;BME280;55464;48.266;14.188;2023-06-22T12:56:33;97572.22;;;29.54;49.99
68476;BME280;55464;48.266;14.188;2023-06-22T12:58:58;97573.16;;;29.60;50.63
68476;BME280;55464;48.266;14.188;2023-06-22T13:01:30;97570.00;;;29.58;50.88